Main page
METAR-TAF:

METAR-TAF

Airports :

Alderney Airport

Alderney,

latitude: 49-43N, longitude: 002-12W, elevation: 71 m

Current weather observation

The report was made 3 hours and 1 minutes ago, at 18:20 UTC
Wind 17 kt from the South
Temperature 13°C
Humidity 77%
Pressure 1025 hPa
Visibility 10 km or more
Few clouds at a height of 1900 ft

METAR: EGJA 131820Z 18017KT 9999 FEW019 13/09 Q1025

Time: 21:21 (21:21 UTC)

Forecast

The report was made 7 hours and 20 minutes ago, at 14:01 UTC
Forecast valid from 13 at 15 UTC to 13 at 19 UTC
Wind 14 kt from the Southwest
Visibility 10 km or more
Few clouds at a height of 1500 ft

TAF: EGJA 131401Z 1315/1319 22014KT 9999 FEW015

Weather observations and forecasts of more than 4000 airports (METAR and TAF reports).

The available stations are represented by yellow and red dots on the map.

Hover mouse over dot to see the name of the station.

Then click to see weather observations and forecasts.

To change the map : click on the green buttons with a black cross to zoom in, on the green button with a dash to zoom out, or on the green arrows for adjacent maps.


METAR-TAF: